Swall Meadows, California
Current Conditions -  °F | °C
As of 10:34 PM on Tuesday 27 Jan 2015 (Local Time) from KBIH Reporting Station
Moderate Rain Moderate Rain  
Wind Chill: 44°   Ceiling: 2900
Heat Index: 48°   Visibility: 5mi
Dew Point: 44°   Wind: 8mph
Humidity: 86%   Direction: 100°E
Pressure: 30.28"   Gusts: NA
Location:  37.4772°N, 118.401°W
Report Text: KBIH 280634Z AUTO 10007KT 5SM RA BR BKN029 OVC036 09/07 A3028 RMK AO2 RAB21 P0002 T00890067
Loading
Personal Weather Stations






























Interactive Weather Map New forecast layout! Learn more

10-Day Weather Forecast

Advertisements
Track Severe Weather on mobile